sensor_id;sensor_type;location;lat;lon;timestamp;P1;durP1;ratioP1;P2;durP2;ratioP2
74465;SDS011;62916;50.044;15.938;2023-03-29T00:00:39;0.90;;;0.60;;
74465;SDS011;62916;50.044;15.938;2023-03-29T00:03:10;0.90;;;0.80;;
74465;SDS011;62916;50.044;15.938;2023-03-29T00:05:41;1.00;;;0.60;;
74465;SDS011;62916;50.044;15.938;2023-03-29T00:08:12;0.80;;;0.50;;
74465;SDS011;62916;50.044;15.938;2023-03-29T00:10:47;2.10;;;0.80;;
74465;SDS011;62916;50.044;15.938;2023-03-29T00:13:18;1.10;;;0.90;;
74465;SDS011;62916;50.044;15.938;2023-03-29T00:15:49;0.80;;;0.60;;
74465;SDS011;62916;50.044;15.938;2023-03-29T00:18:20;0.90;;;0.60;;
74465;SDS011;62916;50.044;15.938;2023-03-29T00:20:54;0.70;;;0.70;;
74465;SDS011;62916;50.044;15.938;2023-03-29T00:23:25;1.20;;;0.70;;
74465;SDS011;62916;50.044;15.938;2023-03-29T00:25:56;1.10;;;1.10;;
74465;SDS011;62916;50.044;15.938;2023-03-29T00:28:27;0.90;;;0.60;;
74465;SDS011;62916;50.044;15.938;2023-03-29T00:31:04;1.10;;;1.00;;
74465;SDS011;62916;50.044;15.938;2023-03-29T00:33:37;0.90;;;0.60;;
74465;SDS011;62916;50.044;15.938;2023-03-29T00:36:09;1.00;;;0.70;;
74465;SDS011;62916;50.044;15.938;2023-03-29T00:38:41;1.80;;;0.90;;
74465;SDS011;62916;50.044;15.938;2023-03-29T00:41:12;0.80;;;0.60;;
74465;SDS011;62916;50.044;15.938;2023-03-29T00:43:53;0.90;;;0.70;;
74465;SDS011;62916;50.044;15.938;2023-03-29T00:46:25;0.60;;;0.40;;
74465;SDS011;62916;50.044;15.938;2023-03-29T00:48:59;1.40;;;0.70;;
74465;SDS011;62916;50.044;15.938;2023-03-29T00:51:35;1.50;;;0.80;;
74465;SDS011;62916;50.044;15.938;2023-03-29T00:56:42;0.90;;;0.70;;
74465;SDS011;62916;50.044;15.938;2023-03-29T00:59:17;1.40;;;0.80;;
74465;SDS011;62916;50.044;15.938;2023-03-29T01:01:50;1.30;;;0.60;;
74465;SDS011;62916;50.044;15.938;2023-03-29T01:04:26;1.60;;;0.90;;
74465;SDS011;62916;50.044;15.938;2023-03-29T01:07:01;0.80;;;0.80;;
74465;SDS011;62916;50.044;15.938;2023-03-29T01:09:35;0.90;;;0.70;;
74465;SDS011;62916;50.044;15.938;2023-03-29T01:12:12;1.40;;;0.80;;
74465;SDS011;62916;50.044;15.938;2023-03-29T01:14:49;0.80;;;0.60;;
74465;SDS011;62916;50.044;15.938;2023-03-29T01:17:25;1.00;;;0.80;;
74465;SDS011;62916;50.044;15.938;2023-03-29T01:19:59;1.00;;;0.70;;
74465;SDS011;62916;50.044;15.938;2023-03-29T01:22:38;1.00;;;0.90;;
74465;SDS011;62916;50.044;15.938;2023-03-29T01:25:19;1.70;;;0.80;;
74465;SDS011;62916;50.044;15.938;2023-03-29T01:27:55;0.80;;;0.80;;
74465;SDS011;62916;50.044;15.938;2023-03-29T01:30:31;0.90;;;0.70;;
74465;SDS011;62916;50.044;15.938;2023-03-29T01:33:08;0.70;;;0.60;;
74465;SDS011;62916;50.044;15.938;2023-03-29T01:35:49;1.00;;;0.90;;
74465;SDS011;62916;50.044;15.938;2023-03-29T01:38:26;1.20;;;0.90;;
74465;SDS011;62916;50.044;15.938;2023-03-29T01:41:02;0.70;;;0.60;;
74465;SDS011;62916;50.044;15.938;2023-03-29T01:43:35;0.90;;;0.80;;
74465;SDS011;62916;50.044;15.938;2023-03-29T01:46:14;1.30;;;0.60;;
74465;SDS011;62916;50.044;15.938;2023-03-29T01:48:55;1.10;;;0.80;;
74465;SDS011;62916;50.044;15.938;2023-03-29T01:51:31;0.90;;;0.70;;
74465;SDS011;62916;50.044;15.938;2023-03-29T01:54:06;1.50;;;0.80;;
74465;SDS011;62916;50.044;15.938;2023-03-29T01:56:42;1.00;;;0.70;;
74465;SDS011;62916;50.044;15.938;2023-03-29T01:59:16;1.20;;;0.70;;
74465;SDS011;62916;50.044;15.938;2023-03-29T02:01:51;1.10;;;0.80;;
74465;SDS011;62916;50.044;15.938;2023-03-29T02:04:28;1.60;;;0.90;;
74465;SDS011;62916;50.044;15.938;2023-03-29T02:07:01;1.10;;;0.70;;
74465;SDS011;62916;50.044;15.938;2023-03-29T02:09:35;0.90;;;0.80;;
74465;SDS011;62916;50.044;15.938;2023-03-29T02:12:08;1.60;;;1.10;;
74465;SDS011;62916;50.044;15.938;2023-03-29T02:14:41;1.00;;;0.90;;
74465;SDS011;62916;50.044;15.938;2023-03-29T02:17:16;1.10;;;1.00;;
74465;SDS011;62916;50.044;15.938;2023-03-29T02:19:48;2.50;;;0.80;;
74465;SDS011;62916;50.044;15.938;2023-03-29T02:22:23;1.10;;;0.80;;
74465;SDS011;62916;50.044;15.938;2023-03-29T02:24:59;0.80;;;0.60;;
74465;SDS011;62916;50.044;15.938;2023-03-29T02:27:31;0.60;;;0.60;;
74465;SDS011;62916;50.044;15.938;2023-03-29T02:30:05;1.20;;;1.10;;
74465;SDS011;62916;50.044;15.938;2023-03-29T02:32:40;1.50;;;1.40;;
74465;SDS011;62916;50.044;15.938;2023-03-29T02:35:19;1.00;;;0.80;;
74465;SDS011;62916;50.044;15.938;2023-03-29T02:37:55;0.80;;;0.70;;
74465;SDS011;62916;50.044;15.938;2023-03-29T02:40:28;1.30;;;0.70;;
74465;SDS011;62916;50.044;15.938;2023-03-29T02:43:01;0.90;;;0.60;;
74465;SDS011;62916;50.044;15.938;2023-03-29T02:45:34;1.00;;;0.60;;
74465;SDS011;62916;50.044;15.938;2023-03-29T02:48:08;1.90;;;0.90;;
74465;SDS011;62916;50.044;15.938;2023-03-29T02:50:43;1.00;;;0.70;;
74465;SDS011;62916;50.044;15.938;2023-03-29T02:53:19;2.10;;;1.20;;
74465;SDS011;62916;50.044;15.938;2023-03-29T02:55:55;1.00;;;0.80;;
74465;SDS011;62916;50.044;15.938;2023-03-29T02:58:28;1.00;;;0.70;;
74465;SDS011;62916;50.044;15.938;2023-03-29T03:01:00;1.90;;;1.00;;
74465;SDS011;62916;50.044;15.938;2023-03-29T03:03:33;1.20;;;0.60;;
74465;SDS011;62916;50.044;15.938;2023-03-29T03:06:04;1.10;;;0.70;;
74465;SDS011;62916;50.044;15.938;2023-03-29T03:08:35;1.00;;;0.80;;
74465;SDS011;62916;50.044;15.938;2023-03-29T03:11:06;1.00;;;0.80;;
74465;SDS011;62916;50.044;15.938;2023-03-29T03:13:37;1.40;;;1.10;;
74465;SDS011;62916;50.044;15.938;2023-03-29T03:16:08;2.20;;;0.80;;
74465;SDS011;62916;50.044;15.938;2023-03-29T03:18:39;1.20;;;0.90;;
74465;SDS011;62916;50.044;15.938;2023-03-29T03:21:12;0.80;;;0.80;;
74465;SDS011;62916;50.044;15.938;2023-03-29T03:23:45;0.80;;;0.80;;
74465;SDS011;62916;50.044;15.938;2023-03-29T03:26:16;2.80;;;0.80;;
74465;SDS011;62916;50.044;15.938;2023-03-29T03:28:47;1.20;;;0.70;;
74465;SDS011;62916;50.044;15.938;2023-03-29T03:31:18;1.00;;;0.90;;
74465;SDS011;62916;50.044;15.938;2023-03-29T03:33:49;0.90;;;0.70;;
74465;SDS011;62916;50.044;15.938;2023-03-29T03:36:20;0.90;;;0.80;;
74465;SDS011;62916;50.044;15.938;2023-03-29T03:38:52;1.50;;;0.80;;
74465;SDS011;62916;50.044;15.938;2023-03-29T03:41:24;1.40;;;0.90;;
74465;SDS011;62916;50.044;15.938;2023-03-29T03:43:55;1.50;;;0.70;;
74465;SDS011;62916;50.044;15.938;2023-03-29T03:46:25;1.20;;;0.80;;
74465;SDS011;62916;50.044;15.938;2023-03-29T03:48:57;1.40;;;0.80;;
74465;SDS011;62916;50.044;15.938;2023-03-29T03:51:27;1.30;;;1.10;;
74465;SDS011;62916;50.044;15.938;2023-03-29T03:53:58;1.60;;;1.10;;
74465;SDS011;62916;50.044;15.938;2023-03-29T03:56:29;4.10;;;0.80;;
74465;SDS011;62916;50.044;15.938;2023-03-29T03:59:01;2.30;;;1.10;;
74465;SDS011;62916;50.044;15.938;2023-03-29T04:01:32;3.60;;;1.00;;
74465;SDS011;62916;50.044;15.938;2023-03-29T04:04:04;2.70;;;1.30;;
74465;SDS011;62916;50.044;15.938;2023-03-29T04:06:38;2.20;;;0.90;;
74465;SDS011;62916;50.044;15.938;2023-03-29T04:09:10;3.10;;;0.80;;
74465;SDS011;62916;50.044;15.938;2023-03-29T04:11:41;3.60;;;1.10;;
74465;SDS011;62916;50.044;15.938;2023-03-29T04:14:12;2.00;;;1.00;;
74465;SDS011;62916;50.044;15.938;2023-03-29T04:16:43;2.30;;;0.90;;
74465;SDS011;62916;50.044;15.938;2023-03-29T04:19:14;2.60;;;1.10;;
74465;SDS011;62916;50.044;15.938;2023-03-29T04:21:45;3.30;;;1.00;;
74465;SDS011;62916;50.044;15.938;2023-03-29T04:24:17;3.70;;;0.90;;
74465;SDS011;62916;50.044;15.938;2023-03-29T04:26:48;1.80;;;1.00;;
74465;SDS011;62916;50.044;15.938;2023-03-29T04:29:20;6.80;;;1.80;;
74465;SDS011;62916;50.044;15.938;2023-03-29T04:31:51;74.30;;;15.50;;
74465;SDS011;62916;50.044;15.938;2023-03-29T04:34:23;27.00;;;5.80;;
74465;SDS011;62916;50.044;15.938;2023-03-29T04:36:53;31.60;;;5.30;;
74465;SDS011;62916;50.044;15.938;2023-03-29T04:39:25;19.40;;;4.60;;
74465;SDS011;62916;50.044;15.938;2023-03-29T04:42:00;20.40;;;5.10;;
74465;SDS011;62916;50.044;15.938;2023-03-29T04:44:32;21.60;;;4.50;;
74465;SDS011;62916;50.044;15.938;2023-03-29T04:47:03;17.80;;;4.30;;
74465;SDS011;62916;50.044;15.938;2023-03-29T04:49:34;19.80;;;5.30;;
74465;SDS011;62916;50.044;15.938;2023-03-29T04:52:05;20.10;;;4.40;;
74465;SDS011;62916;50.044;15.938;2023-03-29T04:54:36;17.20;;;4.50;;
74465;SDS011;62916;50.044;15.938;2023-03-29T04:57:07;18.90;;;4.70;;
74465;SDS011;62916;50.044;15.938;2023-03-29T04:59:38;22.70;;;5.20;;
74465;SDS011;62916;50.044;15.938;2023-03-29T05:02:09;20.80;;;4.60;;
74465;SDS011;62916;50.044;15.938;2023-03-29T05:04:40;18.40;;;4.80;;
74465;SDS011;62916;50.044;15.938;2023-03-29T05:07:11;19.20;;;4.40;;
74465;SDS011;62916;50.044;15.938;2023-03-29T05:09:42;18.80;;;4.60;;
74465;SDS011;62916;50.044;15.938;2023-03-29T05:12:13;15.60;;;4.00;;
74465;SDS011;62916;50.044;15.938;2023-03-29T05:14:44;17.40;;;4.30;;
74465;SDS011;62916;50.044;15.938;2023-03-29T05:17:14;18.40;;;4.90;;
74465;SDS011;62916;50.044;15.938;2023-03-29T05:19:45;16.90;;;4.80;;
74465;SDS011;62916;50.044;15.938;2023-03-29T05:22:16;16.30;;;4.10;;
74465;SDS011;62916;50.044;15.938;2023-03-29T05:24:46;13.50;;;3.40;;
74465;SDS011;62916;50.044;15.938;2023-03-29T05:27:18;16.30;;;3.50;;
74465;SDS011;62916;50.044;15.938;2023-03-29T05:29:49;13.10;;;3.60;;
74465;SDS011;62916;50.044;15.938;2023-03-29T05:32:20;11.20;;;4.10;;
74465;SDS011;62916;50.044;15.938;2023-03-29T05:34:51;13.50;;;4.00;;
74465;SDS011;62916;50.044;15.938;2023-03-29T05:37:22;11.90;;;3.40;;
74465;SDS011;62916;50.044;15.938;2023-03-29T05:39:53;15.20;;;4.30;;
74465;SDS011;62916;50.044;15.938;2023-03-29T05:42:33;14.90;;;3.70;;
74465;SDS011;62916;50.044;15.938;2023-03-29T05:45:07;14.80;;;3.80;;
74465;SDS011;62916;50.044;15.938;2023-03-29T05:47:38;12.50;;;3.20;;
74465;SDS011;62916;50.044;15.938;2023-03-29T05:50:10;12.90;;;3.80;;
74465;SDS011;62916;50.044;15.938;2023-03-29T05:52:40;9.80;;;3.40;;
74465;SDS011;62916;50.044;15.938;2023-03-29T05:55:11;13.40;;;3.00;;
74465;SDS011;62916;50.044;15.938;2023-03-29T05:57:42;9.10;;;3.20;;
74465;SDS011;62916;50.044;15.938;2023-03-29T06:00:14;13.20;;;3.90;;
74465;SDS011;62916;50.044;15.938;2023-03-29T06:02:51;12.30;;;4.00;;
74465;SDS011;62916;50.044;15.938;2023-03-29T06:05:33;11.60;;;3.20;;
74465;SDS011;62916;50.044;15.938;2023-03-29T06:08:04;9.60;;;3.00;;
74465;SDS011;62916;50.044;15.938;2023-03-29T06:10:36;9.70;;;3.00;;
74465;SDS011;62916;50.044;15.938;2023-03-29T06:13:10;10.10;;;3.20;;
74465;SDS011;62916;50.044;15.938;2023-03-29T06:15:40;9.30;;;3.10;;
74465;SDS011;62916;50.044;15.938;2023-03-29T06:18:14;10.40;;;2.80;;
74465;SDS011;62916;50.044;15.938;2023-03-29T06:20:47;9.80;;;3.10;;
74465;SDS011;62916;50.044;15.938;2023-03-29T06:23:19;10.10;;;2.90;;
74465;SDS011;62916;50.044;15.938;2023-03-29T06:25:51;6.30;;;2.80;;
74465;SDS011;62916;50.044;15.938;2023-03-29T06:28:22;9.50;;;3.10;;
74465;SDS011;62916;50.044;15.938;2023-03-29T06:30:52;9.90;;;3.10;;
74465;SDS011;62916;50.044;15.938;2023-03-29T06:33:30;9.90;;;3.00;;
74465;SDS011;62916;50.044;15.938;2023-03-29T06:36:00;9.80;;;3.10;;
74465;SDS011;62916;50.044;15.938;2023-03-29T06:38:32;12.10;;;3.30;;
74465;SDS011;62916;50.044;15.938;2023-03-29T06:41:04;7.90;;;3.00;;
74465;SDS011;62916;50.044;15.938;2023-03-29T06:43:38;10.20;;;3.40;;
74465;SDS011;62916;50.044;15.938;2023-03-29T06:46:09;8.30;;;3.00;;
74465;SDS011;62916;50.044;15.938;2023-03-29T06:48:40;5.80;;;2.80;;
74465;SDS011;62916;50.044;15.938;2023-03-29T06:51:11;7.40;;;2.80;;
74465;SDS011;62916;50.044;15.938;2023-03-29T06:53:42;7.10;;;2.40;;
74465;SDS011;62916;50.044;15.938;2023-03-29T06:56:13;8.60;;;3.10;;
74465;SDS011;62916;50.044;15.938;2023-03-29T06:58:44;8.30;;;2.90;;
74465;SDS011;62916;50.044;15.938;2023-03-29T07:01:15;6.00;;;2.70;;
74465;SDS011;62916;50.044;15.938;2023-03-29T07:03:46;5.60;;;2.40;;
74465;SDS011;62916;50.044;15.938;2023-03-29T07:06:16;8.50;;;2.70;;
74465;SDS011;62916;50.044;15.938;2023-03-29T07:08:48;6.70;;;2.40;;
74465;SDS011;62916;50.044;15.938;2023-03-29T07:11:20;7.70;;;2.80;;
74465;SDS011;62916;50.044;15.938;2023-03-29T07:13:51;6.20;;;2.40;;
74465;SDS011;62916;50.044;15.938;2023-03-29T07:16:22;7.00;;;2.20;;
74465;SDS011;62916;50.044;15.938;2023-03-29T07:18:54;6.00;;;2.30;;
74465;SDS011;62916;50.044;15.938;2023-03-29T07:21:24;6.80;;;2.90;;
74465;SDS011;62916;50.044;15.938;2023-03-29T07:23:55;5.90;;;2.20;;
74465;SDS011;62916;50.044;15.938;2023-03-29T07:26:26;9.00;;;2.70;;
74465;SDS011;62916;50.044;15.938;2023-03-29T07:28:57;6.50;;;3.30;;
74465;SDS011;62916;50.044;15.938;2023-03-29T07:31:27;7.50;;;2.30;;
74465;SDS011;62916;50.044;15.938;2023-03-29T07:33:59;7.40;;;2.00;;
74465;SDS011;62916;50.044;15.938;2023-03-29T07:36:33;5.80;;;2.80;;
74465;SDS011;62916;50.044;15.938;2023-03-29T07:39:05;5.90;;;2.40;;
74465;SDS011;62916;50.044;15.938;2023-03-29T07:41:36;6.00;;;2.10;;
74465;SDS011;62916;50.044;15.938;2023-03-29T07:44:07;4.50;;;2.40;;
74465;SDS011;62916;50.044;15.938;2023-03-29T07:46:37;6.90;;;2.40;;
74465;SDS011;62916;50.044;15.938;2023-03-29T07:49:10;5.90;;;2.40;;
74465;SDS011;62916;50.044;15.938;2023-03-29T07:51:40;5.60;;;2.60;;
74465;SDS011;62916;50.044;15.938;2023-03-29T07:54:11;5.80;;;2.10;;
74465;SDS011;62916;50.044;15.938;2023-03-29T07:56:42;4.50;;;2.10;;
74465;SDS011;62916;50.044;15.938;2023-03-29T07:59:14;6.30;;;2.00;;
74465;SDS011;62916;50.044;15.938;2023-03-29T08:01:45;5.30;;;2.30;;
74465;SDS011;62916;50.044;15.938;2023-03-29T08:04:17;4.70;;;2.20;;
74465;SDS011;62916;50.044;15.938;2023-03-29T08:06:48;5.70;;;2.00;;
74465;SDS011;62916;50.044;15.938;2023-03-29T08:09:19;4.20;;;1.70;;
74465;SDS011;62916;50.044;15.938;2023-03-29T08:11:50;6.30;;;2.00;;
74465;SDS011;62916;50.044;15.938;2023-03-29T08:14:20;5.90;;;2.20;;
74465;SDS011;62916;50.044;15.938;2023-03-29T08:16:52;5.90;;;2.30;;
74465;SDS011;62916;50.044;15.938;2023-03-29T08:19:23;5.60;;;2.30;;
74465;SDS011;62916;50.044;15.938;2023-03-29T08:21:54;5.30;;;1.90;;
74465;SDS011;62916;50.044;15.938;2023-03-29T08:24:24;5.80;;;2.10;;
74465;SDS011;62916;50.044;15.938;2023-03-29T08:26:55;7.30;;;2.30;;
74465;SDS011;62916;50.044;15.938;2023-03-29T08:29:26;4.70;;;1.90;;
74465;SDS011;62916;50.044;15.938;2023-03-29T08:31:57;5.20;;;2.30;;
74465;SDS011;62916;50.044;15.938;2023-03-29T08:34:28;5.50;;;2.00;;
74465;SDS011;62916;50.044;15.938;2023-03-29T08:36:59;5.70;;;1.80;;
74465;SDS011;62916;50.044;15.938;2023-03-29T08:39:31;4.30;;;2.30;;
74465;SDS011;62916;50.044;15.938;2023-03-29T08:42:06;6.00;;;2.00;;
74465;SDS011;62916;50.044;15.938;2023-03-29T08:47:26;6.30;;;1.80;;
74465;SDS011;62916;50.044;15.938;2023-03-29T08:50:02;4.30;;;1.80;;
74465;SDS011;62916;50.044;15.938;2023-03-29T08:52:34;4.00;;;2.10;;
74465;SDS011;62916;50.044;15.938;2023-03-29T08:55:09;5.50;;;1.90;;
74465;SDS011;62916;50.044;15.938;2023-03-29T08:57:55;3.00;;;1.60;;
74465;SDS011;62916;50.044;15.938;2023-03-29T09:00:31;4.20;;;1.60;;
74465;SDS011;62916;50.044;15.938;2023-03-29T09:03:09;4.50;;;1.70;;
74465;SDS011;62916;50.044;15.938;2023-03-29T09:05:49;2.70;;;1.70;;
74465;SDS011;62916;50.044;15.938;2023-03-29T09:08:24;3.50;;;1.70;;
74465;SDS011;62916;50.044;15.938;2023-03-29T09:11:01;3.60;;;2.00;;
74465;SDS011;62916;50.044;15.938;2023-03-29T09:13:44;2.90;;;1.80;;
74465;SDS011;62916;50.044;15.938;2023-03-29T09:16:25;5.00;;;1.70;;
74465;SDS011;62916;50.044;15.938;2023-03-29T09:19:04;3.30;;;1.80;;
74465;SDS011;62916;50.044;15.938;2023-03-29T09:21:41;3.60;;;1.50;;
74465;SDS011;62916;50.044;15.938;2023-03-29T09:24:25;4.20;;;1.40;;
74465;SDS011;62916;50.044;15.938;2023-03-29T09:27:07;5.10;;;1.70;;
74465;SDS011;62916;50.044;15.938;2023-03-29T09:29:54;3.30;;;1.50;;
74465;SDS011;62916;50.044;15.938;2023-03-29T09:32:34;4.00;;;1.50;;
74465;SDS011;62916;50.044;15.938;2023-03-29T09:35:14;3.30;;;1.60;;
74465;SDS011;62916;50.044;15.938;2023-03-29T09:37:49;2.70;;;1.60;;
74465;SDS011;62916;50.044;15.938;2023-03-29T09:40:23;3.80;;;1.30;;
74465;SDS011;62916;50.044;15.938;2023-03-29T09:42:57;3.30;;;1.30;;
74465;SDS011;62916;50.044;15.938;2023-03-29T09:45:32;4.20;;;1.80;;
74465;SDS011;62916;50.044;15.938;2023-03-29T09:48:09;3.40;;;1.30;;
74465;SDS011;62916;50.044;15.938;2023-03-29T09:50:42;3.30;;;1.70;;
74465;SDS011;62916;50.044;15.938;2023-03-29T09:53:15;3.40;;;1.50;;
74465;SDS011;62916;50.044;15.938;2023-03-29T09:55:49;4.90;;;1.70;;
74465;SDS011;62916;50.044;15.938;2023-03-29T09:58:23;3.70;;;1.70;;
74465;SDS011;62916;50.044;15.938;2023-03-29T10:00:57;3.50;;;1.50;;
74465;SDS011;62916;50.044;15.938;2023-03-29T10:03:30;3.40;;;1.50;;
74465;SDS011;62916;50.044;15.938;2023-03-29T10:06:02;3.00;;;1.10;;
74465;SDS011;62916;50.044;15.938;2023-03-29T10:08:37;3.40;;;1.60;;
74465;SDS011;62916;50.044;15.938;2023-03-29T10:11:11;3.70;;;1.50;;
74465;SDS011;62916;50.044;15.938;2023-03-29T10:13:49;2.70;;;1.20;;
74465;SDS011;62916;50.044;15.938;2023-03-29T10:16:24;4.70;;;1.70;;
74465;SDS011;62916;50.044;15.938;2023-03-29T10:18:58;3.20;;;1.40;;
74465;SDS011;62916;50.044;15.938;2023-03-29T10:21:47;3.20;;;1.60;;
74465;SDS011;62916;50.044;15.938;2023-03-29T10:24:20;3.20;;;1.50;;
74465;SDS011;62916;50.044;15.938;2023-03-29T10:29:25;2.70;;;1.00;;
74465;SDS011;62916;50.044;15.938;2023-03-29T10:32:11;4.30;;;1.90;;
74465;SDS011;62916;50.044;15.938;2023-03-29T10:34:45;5.30;;;2.00;;
74465;SDS011;62916;50.044;15.938;2023-03-29T10:37:17;7.10;;;1.80;;
74465;SDS011;62916;50.044;15.938;2023-03-29T10:39:50;6.40;;;2.10;;
74465;SDS011;62916;50.044;15.938;2023-03-29T10:42:23;6.10;;;1.70;;
74465;SDS011;62916;50.044;15.938;2023-03-29T10:44:56;9.90;;;2.10;;
74465;SDS011;62916;50.044;15.938;2023-03-29T10:47:28;6.30;;;1.80;;
74465;SDS011;62916;50.044;15.938;2023-03-29T10:50:03;4.20;;;1.90;;
74465;SDS011;62916;50.044;15.938;2023-03-29T10:52:39;4.20;;;1.90;;
74465;SDS011;62916;50.044;15.938;2023-03-29T10:55:12;5.50;;;1.90;;
74465;SDS011;62916;50.044;15.938;2023-03-29T10:57:45;5.10;;;2.00;;
74465;SDS011;62916;50.044;15.938;2023-03-29T11:00:25;3.10;;;1.90;;
74465;SDS011;62916;50.044;15.938;2023-03-29T11:03:06;4.20;;;1.60;;
74465;SDS011;62916;50.044;15.938;2023-03-29T11:05:49;4.50;;;1.80;;
74465;SDS011;62916;50.044;15.938;2023-03-29T11:08:27;4.60;;;2.30;;
74465;SDS011;62916;50.044;15.938;2023-03-29T11:11:10;7.30;;;2.30;;
74465;SDS011;62916;50.044;15.938;2023-03-29T11:13:52;3.90;;;1.70;;
74465;SDS011;62916;50.044;15.938;2023-03-29T11:16:29;5.40;;;1.90;;
74465;SDS011;62916;50.044;15.938;2023-03-29T11:19:28;5.80;;;1.60;;
74465;SDS011;62916;50.044;15.938;2023-03-29T11:22:12;4.50;;;1.70;;
74465;SDS011;62916;50.044;15.938;2023-03-29T11:24:54;4.90;;;1.70;;
74465;SDS011;62916;50.044;15.938;2023-03-29T11:27:39;4.50;;;1.50;;
74465;SDS011;62916;50.044;15.938;2023-03-29T11:30:19;3.90;;;1.40;;
74465;SDS011;62916;50.044;15.938;2023-03-29T11:32:58;4.20;;;1.50;;
74465;SDS011;62916;50.044;15.938;2023-03-29T11:35:47;3.10;;;1.50;;
74465;SDS011;62916;50.044;15.938;2023-03-29T11:38:28;4.20;;;1.90;;
74465;SDS011;62916;50.044;15.938;2023-03-29T11:41:04;4.20;;;1.70;;
74465;SDS011;62916;50.044;15.938;2023-03-29T11:43:44;4.30;;;1.70;;
74465;SDS011;62916;50.044;15.938;2023-03-29T11:46:22;5.10;;;1.80;;
74465;SDS011;62916;50.044;15.938;2023-03-29T11:48:59;4.50;;;1.40;;
74465;SDS011;62916;50.044;15.938;2023-03-29T11:51:34;2.70;;;1.50;;
74465;SDS011;62916;50.044;15.938;2023-03-29T11:54:12;4.50;;;1.40;;
74465;SDS011;62916;50.044;15.938;2023-03-29T11:56:48;6.60;;;1.80;;
74465;SDS011;62916;50.044;15.938;2023-03-29T11:59:25;3.90;;;1.30;;
74465;SDS011;62916;50.044;15.938;2023-03-29T12:02:02;3.20;;;1.40;;
74465;SDS011;62916;50.044;15.938;2023-03-29T12:04:41;3.00;;;1.30;;
74465;SDS011;62916;50.044;15.938;2023-03-29T12:07:17;5.60;;;1.70;;
74465;SDS011;62916;50.044;15.938;2023-03-29T12:09:52;2.60;;;1.40;;
74465;SDS011;62916;50.044;15.938;2023-03-29T12:12:27;4.30;;;1.90;;
74465;SDS011;62916;50.044;15.938;2023-03-29T12:15:09;3.00;;;1.40;;
74465;SDS011;62916;50.044;15.938;2023-03-29T12:17:48;4.20;;;1.40;;
74465;SDS011;62916;50.044;15.938;2023-03-29T12:20:23;3.40;;;1.00;;
74465;SDS011;62916;50.044;15.938;2023-03-29T12:22:58;4.20;;;1.40;;
74465;SDS011;62916;50.044;15.938;2023-03-29T12:25:30;1.70;;;1.20;;
74465;SDS011;62916;50.044;15.938;2023-03-29T12:28:14;3.20;;;1.20;;
74465;SDS011;62916;50.044;15.938;2023-03-29T12:30:53;2.30;;;1.20;;
74465;SDS011;62916;50.044;15.938;2023-03-29T12:36:44;3.30;;;1.50;;
74465;SDS011;62916;50.044;15.938;2023-03-29T12:39:27;3.40;;;1.20;;
74465;SDS011;62916;50.044;15.938;2023-03-29T12:42:11;3.40;;;1.50;;
74465;SDS011;62916;50.044;15.938;2023-03-29T12:44:46;3.10;;;1.20;;
74465;SDS011;62916;50.044;15.938;2023-03-29T12:47:25;2.00;;;1.10;;
74465;SDS011;62916;50.044;15.938;2023-03-29T12:50:00;3.10;;;1.40;;
74465;SDS011;62916;50.044;15.938;2023-03-29T12:52:32;1.90;;;1.20;;
74465;SDS011;62916;50.044;15.938;2023-03-29T12:55:15;2.60;;;1.30;;
74465;SDS011;62916;50.044;15.938;2023-03-29T12:57:59;2.20;;;1.00;;
74465;SDS011;62916;50.044;15.938;2023-03-29T13:00:40;2.10;;;1.00;;
74465;SDS011;62916;50.044;15.938;2023-03-29T13:03:26;2.20;;;1.20;;
74465;SDS011;62916;50.044;15.938;2023-03-29T13:06:03;2.80;;;1.30;;
74465;SDS011;62916;50.044;15.938;2023-03-29T13:08:37;2.90;;;1.70;;
74465;SDS011;62916;50.044;15.938;2023-03-29T13:11:11;2.30;;;1.20;;
74465;SDS011;62916;50.044;15.938;2023-03-29T13:13:55;3.20;;;1.10;;
74465;SDS011;62916;50.044;15.938;2023-03-29T13:16:31;2.60;;;1.30;;
74465;SDS011;62916;50.044;15.938;2023-03-29T13:19:07;2.30;;;1.20;;
74465;SDS011;62916;50.044;15.938;2023-03-29T13:21:59;1.40;;;1.00;;
74465;SDS011;62916;50.044;15.938;2023-03-29T13:24:55;3.50;;;1.10;;
74465;SDS011;62916;50.044;15.938;2023-03-29T13:27:40;2.40;;;1.20;;
74465;SDS011;62916;50.044;15.938;2023-03-29T13:30:19;4.70;;;1.40;;
74465;SDS011;62916;50.044;15.938;2023-03-29T13:35:39;10.90;;;2.20;;
74465;SDS011;62916;50.044;15.938;2023-03-29T13:38:18;12.80;;;1.80;;
74465;SDS011;62916;50.044;15.938;2023-03-29T13:40:59;9.90;;;1.80;;
74465;SDS011;62916;50.044;15.938;2023-03-29T13:43:33;13.00;;;2.10;;
74465;SDS011;62916;50.044;15.938;2023-03-29T13:46:21;10.10;;;2.20;;
74465;SDS011;62916;50.044;15.938;2023-03-29T13:49:10;12.80;;;2.30;;
74465;SDS011;62916;50.044;15.938;2023-03-29T13:51:58;10.80;;;2.60;;
74465;SDS011;62916;50.044;15.938;2023-03-29T13:54:46;9.00;;;2.20;;
74465;SDS011;62916;50.044;15.938;2023-03-29T13:57:29;14.10;;;1.90;;
74465;SDS011;62916;50.044;15.938;2023-03-29T14:00:05;11.80;;;2.10;;
74465;SDS011;62916;50.044;15.938;2023-03-29T14:02:46;9.00;;;1.60;;
74465;SDS011;62916;50.044;15.938;2023-03-29T14:05:20;11.90;;;1.90;;
74465;SDS011;62916;50.044;15.938;2023-03-29T14:07:56;8.20;;;1.60;;
74465;SDS011;62916;50.044;15.938;2023-03-29T14:10:36;8.30;;;2.30;;
74465;SDS011;62916;50.044;15.938;2023-03-29T14:13:11;8.40;;;1.90;;
74465;SDS011;62916;50.044;15.938;2023-03-29T14:15:44;6.50;;;1.50;;
74465;SDS011;62916;50.044;15.938;2023-03-29T14:18:18;4.40;;;1.30;;
74465;SDS011;62916;50.044;15.938;2023-03-29T14:20:53;8.80;;;1.80;;
74465;SDS011;62916;50.044;15.938;2023-03-29T14:23:26;12.10;;;2.20;;
74465;SDS011;62916;50.044;15.938;2023-03-29T14:26:04;4.60;;;1.40;;
74465;SDS011;62916;50.044;15.938;2023-03-29T14:28:42;6.70;;;1.60;;
74465;SDS011;62916;50.044;15.938;2023-03-29T14:31:17;10.30;;;1.90;;
74465;SDS011;62916;50.044;15.938;2023-03-29T14:33:52;8.00;;;2.20;;
74465;SDS011;62916;50.044;15.938;2023-03-29T14:36:24;5.70;;;1.40;;
74465;SDS011;62916;50.044;15.938;2023-03-29T14:38:57;8.40;;;2.10;;
74465;SDS011;62916;50.044;15.938;2023-03-29T14:44:00;4.60;;;1.10;;
74465;SDS011;62916;50.044;15.938;2023-03-29T14:46:33;7.80;;;1.30;;
74465;SDS011;62916;50.044;15.938;2023-03-29T14:49:05;4.10;;;1.70;;
74465;SDS011;62916;50.044;15.938;2023-03-29T14:51:38;4.30;;;1.10;;
74465;SDS011;62916;50.044;15.938;2023-03-29T14:54:10;3.80;;;1.10;;
74465;SDS011;62916;50.044;15.938;2023-03-29T14:56:47;5.30;;;1.30;;
74465;SDS011;62916;50.044;15.938;2023-03-29T14:59:24;3.20;;;1.30;;
74465;SDS011;62916;50.044;15.938;2023-03-29T15:01:57;7.70;;;1.40;;
74465;SDS011;62916;50.044;15.938;2023-03-29T15:04:32;4.30;;;1.40;;
74465;SDS011;62916;50.044;15.938;2023-03-29T15:07:04;4.80;;;1.10;;
74465;SDS011;62916;50.044;15.938;2023-03-29T15:09:36;3.50;;;1.30;;
74465;SDS011;62916;50.044;15.938;2023-03-29T15:12:12;5.20;;;1.20;;
74465;SDS011;62916;50.044;15.938;2023-03-29T15:14:44;3.20;;;1.10;;
74465;SDS011;62916;50.044;15.938;2023-03-29T15:17:27;3.20;;;1.00;;
74465;SDS011;62916;50.044;15.938;2023-03-29T15:20:19;6.30;;;1.70;;
74465;SDS011;62916;50.044;15.938;2023-03-29T15:22:53;3.60;;;1.30;;
74465;SDS011;62916;50.044;15.938;2023-03-29T15:25:30;5.60;;;1.20;;
74465;SDS011;62916;50.044;15.938;2023-03-29T15:28:03;4.50;;;1.30;;
74465;SDS011;62916;50.044;15.938;2023-03-29T15:30:35;3.80;;;1.50;;
74465;SDS011;62916;50.044;15.938;2023-03-29T15:33:21;4.50;;;1.20;;